Time;durP1;ratioP1;P1;durP2;ratioP2;P2;SDS_P1;SDS_P2;PMS_P1;PMS_P2;Temp;Humidity;BMP_temperature;BMP_pressure;BME280_temperature;BME280_humidity;BME280_pressure;Samples;Min_cycle;Max_cycle;Signal;HPM_P1;HPM_P2
2021/11/01 00:01:15;;;;;;;10.90;5.38;;;;;;;-139.48;100.00;61774.03;5005498;28;20095;-70
2021/11/01 00:04:03;;;;;;;7.38;5.00;;;;;;;-139.48;100.00;61774.03;5019351;28;20044;-70
2021/11/01 00:06:47;;;;;;;10.93;6.15;;;;;;;-139.48;100.00;61774.03;5019212;28;20048;-70
2021/11/01 00:09:32;;;;;;;9.15;5.50;;;;;;;-139.48;100.00;61774.03;5018929;28;20049;-70
2021/11/01 00:12:16;;;;;;;10.77;5.63;;;;;;;-139.48;100.00;61774.03;5034069;28;20044;-70
2021/11/01 00:15:00;;;;;;;6.00;5.20;;;;;;;-139.48;100.00;61774.03;5019055;28;20048;-69
2021/11/01 00:17:44;;;;;;;8.35;5.63;;;;;;;-139.48;100.00;61774.03;5005395;28;20148;-69
2021/11/01 00:20:29;;;;;;;11.07;5.40;;;;;;;-139.48;100.00;61774.03;5018729;28;20056;-69
2021/11/01 00:23:12;;;;;;;9.57;5.45;;;;;;;-139.48;100.00;61774.03;5005111;28;20095;-70
2021/11/01 00:25:56;;;;;;;6.18;4.43;;;;;;;-139.48;100.00;61774.03;5018645;28;20102;-69
2021/11/01 00:28:40;;;;;;;4.93;3.85;;;;;;;-139.48;100.00;61774.03;5018617;28;20468;-69
2021/11/01 00:31:25;;;;;;;5.88;3.13;;;;;;;-139.48;100.00;61774.03;5018496;28;20103;-70
2021/11/01 00:34:08;;;;;;;3.70;3.22;;;;;;;-139.48;100.00;61774.03;5018787;28;20052;-70
2021/11/01 00:36:53;;;;;;;6.25;2.70;;;;;;;-139.48;100.00;61774.03;5018621;28;20479;-70
2021/11/01 00:39:37;;;;;;;3.67;2.20;;;;;;;-139.48;100.00;61774.03;5018237;28;20051;-69
2021/11/01 00:42:21;;;;;;;2.92;1.52;;;;;;;-139.48;100.00;61774.03;5018624;28;20414;-70
2021/11/01 00:45:06;;;;;;;4.78;2.03;;;;;;;-139.48;100.00;61774.03;5018720;28;20537;-69
2021/11/01 00:47:50;;;;;;;2.85;1.48;;;;;;;-139.48;100.00;61774.03;5033541;28;20044;-69
2021/11/01 00:50:36;;;;;;;2.67;1.90;;;;;;;-139.48;100.00;61774.03;5004743;28;20053;-70
2021/11/01 00:53:23;;;;;;;4.07;1.98;;;;;;;-139.48;100.00;61774.03;5018543;28;20091;-70
2021/11/01 00:56:07;;;;;;;2.22;1.52;;;;;;;-139.48;100.00;61774.03;5005276;28;20053;-69
2021/11/01 00:58:51;;;;;;;8.30;1.80;;;;;;;-139.48;100.00;61774.03;5017976;28;20057;-70
2021/11/01 01:01:35;;;;;;;6.15;1.90;;;;;;;-139.48;100.00;61774.03;5033006;28;20099;-70
2021/11/01 01:04:19;;;;;;;2.88;1.40;;;;;;;-139.48;100.00;61774.03;5018432;28;20051;-69
2021/11/01 01:07:03;;;;;;;5.55;1.48;;;;;;;-139.48;100.00;61774.03;5018116;28;20045;-70
2021/11/01 01:09:51;;;;;;;6.45;1.50;;;;;;;-139.48;100.00;61774.03;5018197;28;20053;-70
2021/11/01 01:12:41;;;;;;;6.70;1.52;;;;;;;-139.48;100.00;61774.03;5018787;28;20410;-69
2021/11/01 01:15:27;;;;;;;5.55;1.88;;;;;;;-139.48;100.00;61774.03;5019176;28;20103;-70
2021/11/01 01:18:44;;;;;;;7.25;1.30;;;;;;;-139.48;100.00;61774.03;5018337;28;20063;-68
2021/11/01 01:24:24;;;;;;;7.82;1.83;;;;;;;-139.48;100.00;61774.03;5020927;28;20525;-69
2021/11/01 01:27:08;;;;;;;6.97;1.17;;;;;;;-139.48;100.00;61774.03;5004596;28;20045;-69
2021/11/01 01:29:52;;;;;;;2.97;1.30;;;;;;;-139.48;100.00;61774.03;5033067;28;20103;-69
2021/11/01 01:32:36;;;;;;;3.03;1.20;;;;;;;-139.48;100.00;61774.03;5018167;28;20557;-69
2021/11/01 01:35:21;;;;;;;5.03;1.05;;;;;;;-139.48;100.00;61774.03;5018138;28;20412;-69
2021/11/01 01:38:06;;;;;;;7.88;1.13;;;;;;;-139.48;100.00;61774.03;5004167;28;20406;-69
2021/11/01 01:40:50;;;;;;;4.32;1.38;;;;;;;-139.48;100.00;61774.03;5033036;28;20049;-69
2021/11/01 01:43:34;;;;;;;6.63;1.35;;;;;;;-139.48;100.00;61774.03;5017749;28;20056;-69
2021/11/01 01:46:18;;;;;;;5.25;1.38;;;;;;;-139.48;100.00;61774.03;5003952;28;20075;-70
2021/11/01 01:49:02;;;;;;;8.48;1.80;;;;;;;-139.48;100.00;61774.03;5017999;28;20048;-70
2021/11/01 01:51:46;;;;;;;7.43;1.70;;;;;;;-139.48;100.00;61774.03;5018710;28;20087;-70
2021/11/01 01:54:30;;;;;;;6.32;1.77;;;;;;;-139.48;100.00;61774.03;5021711;28;20122;-70
2021/11/01 01:57:15;;;;;;;9.38;1.70;;;;;;;-139.48;100.00;61774.03;5007813;28;20048;-69
2021/11/01 01:59:58;;;;;;;4.50;1.40;;;;;;;-139.48;100.00;61774.03;5007282;28;20055;-70
2021/11/01 02:02:42;;;;;;;6.18;1.90;;;;;;;-139.48;100.00;61774.03;5007288;28;20052;-70
2021/11/01 02:05:34;;;;;;;6.28;1.90;;;;;;;-139.48;100.00;61774.03;5021488;28;20096;-70
2021/11/01 02:08:18;;;;;;;8.43;1.60;;;;;;;-139.48;100.00;61774.03;5036334;28;20468;-70
2021/11/01 02:11:09;;;;;;;6.53;1.35;;;;;;;-139.48;100.00;61774.03;5021141;28;20178;-70
2021/11/01 02:13:56;;;;;;;5.13;1.70;;;;;;;-139.48;100.00;61774.03;5021475;28;20064;-70
2021/11/01 02:16:41;;;;;;;5.88;2.10;;;;;;;-139.48;100.00;61774.03;5021092;28;20554;-69
2021/11/01 02:19:30;;;;;;;5.82;1.33;;;;;;;-139.48;100.00;61774.03;5021028;28;20052;-70
2021/11/01 02:22:22;;;;;;;5.00;1.35;;;;;;;-139.48;100.00;61774.03;5020819;28;20044;-69
2021/11/01 02:25:08;;;;;;;4.85;1.30;;;;;;;-139.48;100.00;61774.03;5007309;28;20051;-69
2021/11/01 02:27:52;;;;;;;3.75;1.17;;;;;;;-139.48;100.00;61774.03;5036204;28;20052;-69
2021/11/01 02:30:38;;;;;;;3.33;1.20;;;;;;;-139.48;100.00;61774.03;5021134;28;20052;-69
2021/11/01 02:33:24;;;;;;;7.22;1.35;;;;;;;-139.48;100.00;61774.03;5020806;28;20558;-69
2021/11/01 02:36:08;;;;;;;9.00;2.00;;;;;;;-139.48;100.00;61774.03;5021007;28;20045;-69
2021/11/01 02:38:55;;;;;;;4.68;1.08;;;;;;;-139.48;100.00;61774.03;5020772;28;20567;-69
2021/11/01 02:41:41;;;;;;;7.22;1.98;;;;;;;-139.48;100.00;61774.03;5020868;28;20052;-69
2021/11/01 02:44:28;;;;;;;5.72;1.38;;;;;;;-139.48;100.00;61774.03;5007064;28;20056;-69
2021/11/01 02:47:14;;;;;;;2.67;1.30;;;;;;;-139.48;100.00;61774.03;5007442;28;20056;-69
2021/11/01 02:50:04;;;;;;;6.25;1.42;;;;;;;-139.48;100.00;61774.03;5020380;28;20460;-69
2021/11/01 02:52:49;;;;;;;6.72;1.50;;;;;;;-139.48;100.00;61774.03;5020313;28;20080;-69
2021/11/01 02:55:34;;;;;;;5.97;2.00;;;;;;;-139.48;100.00;61774.03;5006465;28;20081;-70
2021/11/01 02:58:18;;;;;;;11.02;1.42;;;;;;;-139.48;100.00;61774.03;5020711;28;20101;-69
2021/11/01 03:01:03;;;;;;;4.88;1.30;;;;;;;-139.48;100.00;61774.03;5006641;28;20124;-69
2021/11/01 03:03:47;;;;;;;6.55;1.42;;;;;;;-139.48;100.00;61774.03;5019869;28;20056;-68
2021/11/01 03:06:34;;;;;;;8.27;1.90;;;;;;;-139.48;100.00;61774.03;5020380;28;20048;-69
2021/11/01 03:09:18;;;;;;;5.82;1.25;;;;;;;-139.48;100.00;61774.03;5020249;28;20180;-69
2021/11/01 03:12:06;;;;;;;5.25;1.50;;;;;;;-139.48;100.00;61774.03;5035015;28;20041;-70
2021/11/01 03:14:54;;;;;;;9.45;1.95;;;;;;;-139.48;100.00;61774.03;5006375;28;20574;-69
2021/11/01 03:17:41;;;;;;;8.80;1.30;;;;;;;-139.48;100.00;61774.03;5020241;28;20509;-69
2021/11/01 03:20:31;;;;;;;5.97;1.48;;;;;;;-139.48;100.00;61774.03;5019875;28;20049;-69
2021/11/01 03:23:28;;;;;;;6.10;1.65;;;;;;;-139.48;100.00;61774.03;5005850;28;20191;-69
2021/11/01 03:26:15;;;;;;;10.20;1.48;;;;;;;-139.48;100.00;61774.03;5019865;28;20056;-69
2021/11/01 03:29:02;;;;;;;12.13;1.90;;;;;;;-139.48;100.00;61774.03;5006249;28;20052;-69
2021/11/01 03:31:48;;;;;;;33.30;2.22;;;;;;;-139.48;100.00;61774.03;5006088;28;20060;-69
2021/11/01 03:34:32;;;;;;;13.15;1.90;;;;;;;-139.48;100.00;61774.03;5019922;28;20080;-69
2021/11/01 03:37:17;;;;;;;7.00;1.80;;;;;;;-139.48;100.00;61774.03;5019654;28;20052;-69
2021/11/01 03:40:03;;;;;;;3.08;1.38;;;;;;;-139.48;100.00;61774.03;5019548;28;20182;-69
2021/11/01 03:42:48;;;;;;;8.88;1.58;;;;;;;-139.48;100.00;61774.03;5019567;28;20048;-69
2021/11/01 03:45:35;;;;;;;4.20;1.17;;;;;;;-139.48;100.00;61774.03;5005778;28;20460;-70
2021/11/01 03:48:21;;;;;;;6.43;1.33;;;;;;;-139.48;100.00;61774.03;5019312;28;20103;-69
2021/11/01 03:53:54;;;;;;;2.10;1.33;;;;;;;-139.48;100.00;61774.03;5019940;28;20091;-69
2021/11/01 03:56:38;;;;;;;5.97;1.30;;;;;;;-139.48;100.00;61774.03;5019213;28;20516;-69
2021/11/01 03:59:22;;;;;;;5.43;1.48;;;;;;;-139.48;100.00;61774.03;5018978;28;20080;-70
2021/11/01 04:02:12;;;;;;;8.45;1.63;;;;;;;-139.48;100.00;61774.03;5019313;28;20175;-70
2021/11/01 04:04:59;;;;;;;11.45;1.58;;;;;;;-139.48;100.00;61774.03;5019307;28;20056;-69
2021/11/01 04:07:44;;;;;;;13.23;1.90;;;;;;;-139.48;100.00;61774.03;5005730;28;20052;-70
2021/11/01 04:10:28;;;;;;;7.82;1.20;;;;;;;-139.48;100.00;61774.03;5034047;28;20402;-70
2021/11/01 04:13:12;;;;;;;5.57;1.63;;;;;;;-139.48;100.00;61774.03;5019182;28;20553;-70
2021/11/01 04:16:09;;;;;;;9.00;1.80;;;;;;;-139.48;100.00;61774.03;5004168;28;20047;-69
2021/11/01 04:19:20;;;;;;;4.68;1.45;;;;;;;-139.48;100.00;61774.03;5020627;28;20051;-69
2021/11/01 04:22:04;;;;;;;5.07;1.13;;;;;;;-139.48;100.00;61774.03;5022654;28;20048;-69
2021/11/01 04:24:49;;;;;;;5.25;1.58;;;;;;;-139.48;100.00;61774.03;5005050;28;20102;-69
2021/11/01 04:27:33;;;;;;;6.90;1.40;;;;;;;-139.48;100.00;61774.03;5005014;28;20130;-69
2021/11/01 04:30:17;;;;;;;7.18;1.30;;;;;;;-139.48;100.00;61774.03;5018760;28;20199;-69
2021/11/01 04:33:03;;;;;;;7.90;1.45;;;;;;;-139.48;100.00;61774.03;5018809;28;20410;-69
2021/11/01 04:35:47;;;;;;;9.52;1.70;;;;;;;-139.48;100.00;61774.03;5018995;28;20052;-69
2021/11/01 04:38:46;;;;;;;6.93;1.05;;;;;;;-139.48;100.00;61774.03;5033644;28;20052;-69
2021/11/01 04:53:48;;;;;;;7.00;1.60;;;;;;;-139.48;100.00;61774.03;5021154;28;20044;-69
2021/11/01 04:56:32;;;;;;;10.77;1.92;;;;;;;-139.48;100.00;61774.03;5018970;28;20407;-69
2021/11/01 04:59:16;;;;;;;10.80;1.90;;;;;;;-139.48;100.00;61774.03;5018050;28;20418;-69
2021/11/01 05:02:01;;;;;;;5.80;1.70;;;;;;;-139.48;100.00;61774.03;5018132;28;20072;-69
2021/11/01 05:04:47;;;;;;;6.75;1.67;;;;;;;-139.48;100.00;61774.03;5018137;28;20103;-69
2021/11/01 05:07:31;;;;;;;8.02;1.58;;;;;;;-139.48;100.00;61774.03;5018659;28;20413;-69
2021/11/01 05:10:25;;;;;;;5.88;1.63;;;;;;;-139.48;100.00;61774.03;5018059;28;20056;-69
2021/11/01 05:13:13;;;;;;;4.47;1.60;;;;;;;-139.48;100.00;61774.03;5019867;28;20040;-69
2021/11/01 05:19:21;;;;;;;6.75;1.25;;;;;;;-139.48;100.00;61774.03;5033166;28;20060;-69
2021/11/01 05:22:14;;;;;;;5.32;1.58;;;;;;;-139.48;100.00;61774.03;5033104;28;20052;-69
2021/11/01 05:25:05;;;;;;;9.27;1.42;;;;;;;-139.48;100.00;61774.03;5033483;28;20095;-69
2021/11/01 05:30:47;;;;;;;5.93;1.55;;;;;;;-139.48;100.00;61774.03;5022416;28;20044;-69
2021/11/01 05:36:35;;;;;;;5.68;1.27;;;;;;;-139.48;100.00;61774.03;5024790;28;20054;-69
2021/11/01 05:39:18;;;;;;;3.60;1.35;;;;;;;-139.48;100.00;61774.03;5008214;28;20056;-69
2021/11/01 05:42:03;;;;;;;3.55;1.20;;;;;;;-139.48;100.00;61774.03;5036937;28;20557;-69
2021/11/01 05:44:47;;;;;;;8.32;1.10;;;;;;;-139.48;100.00;61774.03;5007729;28;20048;-68
2021/11/01 05:47:31;;;;;;;7.80;1.48;;;;;;;-139.48;100.00;61774.03;5021903;28;20052;-71
2021/11/01 05:50:15;;;;;;;;;;;;;;;-139.48;100.00;61774.03;5038281;28;20525;-70
2021/11/01 05:53:01;;;;;;;3.27;0.80;;;;;;;-139.48;100.00;61774.03;5021763;28;19967;-71
2021/11/01 05:56:11;;;;;;;2.85;1.05;;;;;;;-139.48;100.00;61774.03;5022018;28;20052;-70
2021/11/01 06:13:32;;;;;;;5.32;1.33;;;;;;;-139.48;100.00;61774.03;5036637;28;20048;-70
2021/11/01 06:16:16;;;;;;;4.28;1.02;;;;;;;-139.48;100.00;61774.03;5023369;28;20040;-70
2021/11/01 06:18:59;;;;;;;5.45;1.45;;;;;;;-139.48;100.00;61774.03;5021484;28;20111;-70
2021/11/01 06:21:46;;;;;;;3.67;1.08;;;;;;;-139.48;100.00;61774.03;5006905;28;20052;-70
2021/11/01 06:27:34;;;;;;;2.50;0.47;;;;;;;-139.48;100.00;61774.03;5024009;28;20053;-70
2021/11/01 06:30:24;;;;;;;1.48;0.80;;;;;;;-139.48;100.00;61774.03;5007121;28;20052;-70
2021/11/01 06:33:17;;;;;;;2.97;1.20;;;;;;;-139.48;100.00;61774.03;5021907;28;20138;-69
2021/11/01 06:42:28;;;;;;;2.30;0.88;;;;;;;-139.48;100.00;61774.03;5008701;28;20111;-70
2021/11/01 06:45:27;;;;;;;4.22;0.77;;;;;;;-139.48;100.00;61774.03;5022205;28;20103;-70
2021/11/01 06:58:14;;;;;;;2.10;0.75;;;;;;;-139.48;100.00;61774.03;5035465;28;20479;-70
2021/11/01 07:16:06;;;;;;;6.43;1.00;;;;;;;-139.48;100.00;61774.03;5034587;28;20159;-70
2021/11/01 07:18:57;;;;;;;1.65;0.60;;;;;;;-139.48;100.00;61774.03;5034929;28;20060;-70
2021/11/01 07:22:21;;;;;;;5.82;0.85;;;;;;;-139.48;100.00;61774.03;5020561;28;20051;-70
2021/11/01 08:23:28;;;;;;;2.13;0.80;;;;;;;-139.48;100.00;61774.03;5033078;28;20528;-70
2021/11/01 09:07:31;;;;;;;5.18;0.45;;;;;;;-139.48;100.00;61774.03;5020355;28;20091;-68
2021/11/01 09:21:43;;;;;;;4.07;0.75;;;;;;;-139.48;100.00;61774.03;5017798;28;20090;-71
2021/11/01 09:24:34;;;;;;;2.30;0.70;;;;;;;-139.48;100.00;61774.03;5004207;28;20095;-69
2021/11/01 09:27:21;;;;;;;2.60;0.80;;;;;;;-139.48;100.00;61774.03;5018268;28;20426;-70
2021/11/01 09:41:42;;;;;;;0.93;0.80;;;;;;;-139.48;100.00;61774.03;5020050;28;20514;-70
2021/11/01 09:44:27;;;;;;;1.45;0.57;;;;;;;-139.48;100.00;61774.03;5017649;28;20068;-70
2021/11/01 09:47:12;;;;;;;1.35;0.70;;;;;;;-139.48;100.00;61774.03;5017559;28;20076;-71
2021/11/01 09:49:57;;;;;;;2.83;0.80;;;;;;;-139.48;100.00;61774.03;5017277;28;20516;-70
2021/11/01 09:52:43;;;;;;;1.88;0.85;;;;;;;-139.48;100.00;61774.03;5032126;28;20115;-70
2021/11/01 10:01:24;;;;;;;4.55;0.90;;;;;;;-139.48;100.00;61774.03;5020058;28;20406;-71
2021/11/01 10:04:23;;;;;;;3.65;0.77;;;;;;;-139.48;100.00;61774.03;5032099;28;20142;-70
2021/11/01 10:07:19;;;;;;;2.30;1.70;;;;;;;-139.48;100.00;61774.03;5003312;28;20048;-70
2021/11/01 10:10:12;;;;;;;1.60;0.63;;;;;;;-139.48;100.00;61774.03;5004084;28;20052;-70
2021/11/01 10:12:56;;;;;;;1.80;1.15;;;;;;;-139.48;100.00;61774.03;5017677;28;20095;-70
2021/11/01 10:18:49;;;;;;;6.07;0.90;;;;;;;-139.48;100.00;61774.03;5023269;28;20052;-71
2021/11/01 10:21:33;;;;;;;2.30;0.60;;;;;;;-139.48;100.00;61774.03;5020569;28;20084;-71
2021/11/01 10:24:41;;;;;;;2.80;1.30;;;;;;;-139.48;100.00;61774.03;5020299;28;20505;-71
2021/11/01 10:27:39;;;;;;;2.20;0.90;;;;;;;-139.48;100.00;61774.03;5035322;28;20080;-70
2021/11/01 10:30:28;;;;;;;0.90;0.52;;;;;;;-139.48;100.00;61774.03;5035256;28;20114;-69
2021/11/01 10:33:12;;;;;;;2.10;0.88;;;;;;;-139.48;100.00;61774.03;5020200;28;20044;-71
2021/11/01 10:35:56;;;;;;;2.47;0.80;;;;;;;-139.48;100.00;61774.03;5035122;28;20056;-71
2021/11/01 10:38:43;;;;;;;2.10;0.80;;;;;;;-139.48;100.00;61774.03;5020447;28;20055;-70
2021/11/01 10:44:33;;;;;;;3.38;0.90;;;;;;;-139.48;100.00;61774.03;5020011;28;20404;-69
2021/11/01 10:57:08;;;;;;;1.60;0.90;;;;;;;-139.48;100.00;61774.03;5034910;28;20040;-71
2021/11/01 11:12:35;;;;;;;1.08;0.63;;;;;;;-139.48;100.00;61774.03;5022363;28;20075;-71
2021/11/01 11:15:21;;;;;;;6.55;1.10;;;;;;;-139.48;100.00;61774.03;5008021;28;20199;-71
2021/11/01 11:26:56;;;;;;;2.17;0.60;;;;;;;-139.48;100.00;61774.03;5021828;28;20057;-71
2021/11/01 11:48:37;;;;;;;1.80;0.98;;;;;;;-139.48;100.00;61774.03;5015142;28;20133;-70
2021/11/01 11:51:26;;;;;;;0.68;0.47;;;;;;;-139.48;100.00;61774.03;5005322;28;20167;-71
2021/11/01 11:54:10;;;;;;;3.80;0.70;;;;;;;-139.48;100.00;61774.03;5018842;28;20106;-71
2021/11/01 11:56:56;;;;;;;3.28;0.80;;;;;;;-139.48;100.00;61774.03;5005304;28;20106;-71
2021/11/01 11:59:40;;;;;;;3.00;0.80;;;;;;;-139.48;100.00;61774.03;5018811;28;20044;-71
2021/11/01 12:02:39;;;;;;;1.98;0.90;;;;;;;-139.48;100.00;61774.03;5018496;28;20056;-71
2021/11/01 12:05:34;;;;;;;1.73;0.98;;;;;;;-139.48;100.00;61774.03;5005595;28;20521;-71
2021/11/01 12:08:36;;;;;;;1.20;0.63;;;;;;;-139.48;100.00;61774.03;5019090;28;20053;-71
2021/11/01 12:11:34;;;;;;;1.27;0.57;;;;;;;-139.48;100.00;61774.03;5020199;28;20191;-71
2021/11/01 12:17:29;;;;;;;1.15;0.73;;;;;;;-139.48;100.00;61774.03;5021195;28;20080;-71
2021/11/01 12:20:13;;;;;;;4.13;0.70;;;;;;;-139.48;100.00;61774.03;5018323;28;20063;-72
2021/11/01 12:23:06;;;;;;;2.05;0.85;;;;;;;-139.48;100.00;61774.03;5018333;28;20191;-70
2021/11/01 12:25:50;;;;;;;3.80;0.77;;;;;;;-139.48;100.00;61774.03;5018570;28;20052;-71
2021/11/01 12:28:35;;;;;;;0.90;0.57;;;;;;;-139.48;100.00;61774.03;5033431;28;20552;-71
2021/11/01 12:31:20;;;;;;;1.90;0.77;;;;;;;-139.48;100.00;61774.03;5033436;28;20125;-71
2021/11/01 12:37:02;;;;;;;2.20;0.60;;;;;;;-139.48;100.00;61774.03;5018199;28;20052;-70
2021/11/01 12:39:55;;;;;;;1.65;0.35;;;;;;;-139.48;100.00;61774.03;5032971;28;20505;-71
2021/11/01 12:42:51;;;;;;;1.83;0.60;;;;;;;-139.48;100.00;61774.03;5019670;28;20147;-71
2021/11/01 12:46:10;;;;;;;1.83;0.70;;;;;;;-139.48;100.00;61774.03;5033159;28;20378;-71
2021/11/01 12:58:22;;;;;;;1.55;0.90;;;;;;;-139.48;100.00;61774.03;5020517;28;20323;-69
2021/11/01 13:01:12;;;;;;;2.20;0.93;;;;;;;-139.48;100.00;61774.03;5017937;28;20103;-68
2021/11/01 13:04:16;;;;;;;1.33;0.65;;;;;;;-139.48;100.00;61774.03;5018006;28;20099;-70
2021/11/01 13:07:20;;;;;;;1.98;0.40;;;;;;;-139.48;100.00;61774.03;5020249;28;20080;-69
2021/11/01 13:19:25;;;;;;;3.15;0.80;;;;;;;-139.48;100.00;61774.03;5032699;28;20140;-71
2021/11/01 13:22:16;;;;;;;2.33;1.05;;;;;;;-139.48;100.00;61774.03;5017707;28;20132;-69
2021/11/01 13:25:23;;;;;;;1.05;0.50;;;;;;;-139.48;100.00;61774.03;5018666;28;20044;-69
2021/11/01 13:37:32;;;;;;;;;;;;;;;-139.48;100.00;61774.03;5020595;28;20076;-68
2021/11/01 13:40:16;;;;;;;2.85;0.80;;;;;;;-139.48;100.00;61774.03;5019025;28;19920;-68
2021/11/01 13:43:00;;;;;;;4.43;0.90;;;;;;;-139.48;100.00;61774.03;5017469;28;20048;-68
2021/11/01 13:45:51;;;;;;;1.38;0.80;;;;;;;-139.48;100.00;61774.03;5033836;28;20505;-69
2021/11/01 13:48:35;;;;;;;4.88;0.65;;;;;;;-139.48;100.00;61774.03;5020768;28;20052;-69
2021/11/01 13:51:19;;;;;;;2.95;0.77;;;;;;;-139.48;100.00;61774.03;5036370;28;20044;-69
2021/11/01 13:54:09;;;;;;;1.10;0.70;;;;;;;-139.48;100.00;61774.03;5021334;28;20099;-69
2021/11/01 13:56:57;;;;;;;2.05;0.82;;;;;;;-139.48;100.00;61774.03;5008070;28;20048;-69
2021/11/01 14:00:09;;;;;;;1.50;0.68;;;;;;;-139.48;100.00;61774.03;5020817;28;20056;-68
2021/11/01 14:12:12;;;;;;;1.30;0.75;;;;;;;-139.48;100.00;61774.03;5023603;28;20103;-71
2021/11/01 14:18:42;;;;;;;3.83;0.80;;;;;;;-139.48;100.00;61774.03;4994463;28;20077;-71
2021/11/01 15:10:11;;;;;;;4.78;0.90;;;;;;;-139.48;100.00;61774.03;5034752;28;20132;-70
2021/11/01 15:21:18;;;;;;;2.75;0.98;;;;;;;-139.48;100.00;61774.03;5034603;28;20564;-70
2021/11/01 15:36:32;;;;;;;6.05;1.50;;;;;;;-139.48;100.00;61774.03;5017037;28;20050;-70
2021/11/01 15:39:33;;;;;;;5.38;1.48;;;;;;;-139.48;100.00;61774.03;5034260;28;20132;-70
2021/11/01 16:19:00;;;;;;;7.32;1.98;;;;;;;-139.48;100.00;61774.03;5018114;28;20049;-71
2021/11/01 16:21:46;;;;;;;7.35;1.60;;;;;;;-139.48;100.00;61774.03;5004629;28;20406;-71
2021/11/01 16:24:33;;;;;;;6.45;2.00;;;;;;;-139.48;100.00;61774.03;5004365;28;20111;-70
2021/11/01 16:27:19;;;;;;;9.05;1.90;;;;;;;-139.48;100.00;61774.03;5018096;28;20057;-70
2021/11/01 16:30:10;;;;;;;8.82;2.00;;;;;;;-139.48;100.00;61774.03;5004435;28;20138;-70
2021/11/01 16:33:01;;;;;;;5.13;1.98;;;;;;;-139.48;100.00;61774.03;5032820;28;20076;-71
2021/11/01 16:35:51;;;;;;;5.30;2.17;;;;;;;-139.48;100.00;61774.03;5018528;28;20064;-71
2021/11/01 16:38:50;;;;;;;6.50;1.85;;;;;;;-139.48;100.00;61774.03;5019003;28;20044;-71
2021/11/01 16:41:35;;;;;;;11.15;2.17;;;;;;;-139.48;100.00;61774.03;5019850;28;20043;-70
2021/11/01 16:47:06;;;;;;;11.20;2.40;;;;;;;-139.48;100.00;61774.03;5018475;28;20048;-71
2021/11/01 16:49:52;;;;;;;7.35;2.50;;;;;;;-139.48;100.00;61774.03;5032953;28;20132;-71
2021/11/01 16:52:40;;;;;;;10.32;3.88;;;;;;;-139.48;100.00;61774.03;5017830;28;20513;-71
2021/11/01 16:55:29;;;;;;;6.10;3.08;;;;;;;-139.48;100.00;61774.03;5003795;28;20087;-71
2021/11/01 16:58:24;;;;;;;8.55;3.97;;;;;;;-139.48;100.00;61774.03;5032983;28;20100;-71
2021/11/01 17:01:12;;;;;;;7.63;3.70;;;;;;;-139.48;100.00;61774.03;5019451;28;20048;-71
2021/11/01 17:04:01;;;;;;;5.95;3.50;;;;;;;-139.48;100.00;61774.03;5018011;28;20100;-70
2021/11/01 17:06:54;;;;;;;5.75;3.20;;;;;;;-139.48;100.00;61774.03;5018499;28;20505;-70
2021/11/01 17:10:45;;;;;;;7.18;3.38;;;;;;;-139.48;100.00;61774.03;5018734;28;20072;-70
2021/11/01 17:25:08;;;;;;;7.13;2.05;;;;;;;-139.48;100.00;61774.03;5036712;28;20048;-71
2021/11/01 17:31:13;;;;;;;3.45;1.98;;;;;;;-139.48;100.00;61774.03;5022399;28;20457;-71
2021/11/01 17:37:33;;;;;;;;;;;;;;;-139.48;100.00;61774.03;5025107;28;20513;-71
2021/11/01 18:53:25;;;;;;;3.47;1.90;;;;;;;-139.48;100.00;61774.03;5035707;28;20505;-71
2021/11/01 18:56:11;;;;;;;6.90;2.45;;;;;;;-139.48;100.00;61774.03;5020722;28;20068;-71
2021/11/01 18:58:56;;;;;;;2.83;1.90;;;;;;;-139.48;100.00;61774.03;5006513;28;20084;-71
2021/11/01 19:01:43;;;;;;;3.05;1.48;;;;;;;-139.48;100.00;61774.03;5020552;28;20124;-70
2021/11/01 19:04:33;;;;;;;2.92;1.48;;;;;;;-139.48;100.00;61774.03;5020501;28;20418;-71
2021/11/01 19:08:06;;;;;;;3.13;1.60;;;;;;;-139.48;100.00;61774.03;5021009;28;20048;-71
2021/11/01 19:13:56;;;;;;;7.68;3.15;;;;;;;-139.48;100.00;61774.03;5035392;28;20049;-70
2021/11/01 20:03:08;;;;;;;7.05;4.38;;;;;;;-139.48;100.00;61774.03;5034367;28;20060;-71
2021/11/01 20:05:59;;;;;;;7.15;4.40;;;;;;;-139.48;100.00;61774.03;5023483;28;20048;-71
2021/11/01 20:11:57;;;;;;;7.13;4.40;;;;;;;-139.48;100.00;61774.03;5019580;28;20406;-71
2021/11/01 20:15:18;;;;;;;7.57;4.65;;;;;;;-139.48;100.00;61774.03;5034458;28;20048;-71
2021/11/01 21:25:43;;;;;;;5.80;3.42;;;;;;;-139.48;100.00;61774.03;5033261;28;20111;-70
2021/11/01 21:28:26;;;;;;;4.68;2.95;;;;;;;-139.48;100.00;61774.03;5017959;28;20048;-70
2021/11/01 21:31:10;;;;;;;3.45;2.95;;;;;;;-139.48;100.00;61774.03;5032974;28;20184;-70
2021/11/01 21:33:56;;;;;;;7.60;3.00;;;;;;;-139.48;100.00;61774.03;5018170;28;20504;-70
2021/11/01 21:36:41;;;;;;;6.80;3.85;;;;;;;-139.48;100.00;61774.03;5033375;28;20076;-70
2021/11/01 21:39:26;;;;;;;5.68;3.53;;;;;;;-139.48;100.00;61774.03;5032927;28;20524;-70
2021/11/01 21:42:09;;;;;;;6.40;4.07;;;;;;;-139.48;100.00;61774.03;5017859;28;20052;-70
2021/11/01 21:44:53;;;;;;;8.35;4.88;;;;;;;-139.48;100.00;61774.03;5032835;28;20095;-70
2021/11/01 21:47:38;;;;;;;7.07;4.28;;;;;;;-139.48;100.00;61774.03;5018150;28;20057;-70
2021/11/01 21:50:22;;;;;;;7.32;3.83;;;;;;;-139.48;100.00;61774.03;5033234;28;20052;-70
2021/11/01 21:53:06;;;;;;;8.30;4.10;;;;;;;-139.48;100.00;61774.03;5032749;28;20071;-70
2021/11/01 21:55:50;;;;;;;10.20;4.72;;;;;;;-139.48;100.00;61774.03;5033003;28;20053;-70
2021/11/01 21:58:54;;;;;;;11.40;3.83;;;;;;;-139.48;100.00;61774.03;5032838;28;20107;-71
2021/11/01 22:20:03;;;;;;;5.85;3.63;;;;;;;-139.48;100.00;61774.03;5023318;28;20132;-71
2021/11/01 22:22:54;;;;;;;4.43;2.90;;;;;;;-139.48;100.00;61774.03;5023772;28;20048;-71
2021/11/01 22:25:48;;;;;;;5.03;2.85;;;;;;;-139.48;100.00;61774.03;5036208;28;20048;-71
2021/11/01 22:34:50;;;;;;;4.22;3.50;;;;;;;-139.48;100.00;61774.03;5023592;28;20048;-70
2021/11/01 22:40:50;;;;;;;6.25;4.10;;;;;;;-139.48;100.00;61774.03;5023504;28;20107;-70
2021/11/01 22:58:08;;;;;;;6.28;3.40;;;;;;;-139.48;100.00;61774.03;5023335;28;20110;-70
2021/11/01 23:00:57;;;;;;;9.45;4.30;;;;;;;-139.48;100.00;61774.03;5020867;28;20471;-70
2021/11/01 23:03:54;;;;;;;7.32;3.80;;;;;;;-139.48;100.00;61774.03;5020678;28;20458;-70
2021/11/01 23:33:45;;;;;;;6.38;3.55;;;;;;;-139.48;100.00;61774.03;5035022;28;20044;-71
2021/11/01 23:36:29;;;;;;;;;;;;;;;-139.48;100.00;61774.03;5020159;28;20099;-70
2021/11/01 23:39:15;;;;;;;4.63;3.87;;;;;;;-139.48;100.00;61774.03;5019718;28;19920;-70
2021/11/01 23:41:59;;;;;;;5.90;3.90;;;;;;;-139.48;100.00;61774.03;5019955;28;20402;-70
2021/11/01 23:44:43;;;;;;;;;;;;;;;-139.48;100.00;61774.03;5035170;28;20049;-70
2021/11/01 23:47:27;;;;;;;7.83;4.67;;;;;;;-139.48;100.00;61774.03;5034495;28;19999;-70
2021/11/01 23:50:10;;;;;;;11.98;5.13;;;;;;;-139.48;100.00;61774.03;5034449;28;20052;-70
2021/11/01 23:53:03;;;;;;;9.65;5.60;;;;;;;-139.48;100.00;61774.03;5034696;28;20052;-70
2021/11/01 23:55:47;;;;;;;9.60;5.15;;;;;;;-139.48;100.00;61774.03;5034509;28;20509;-70
2021/11/01 23:58:31;;;;;;;8.25;4.03;;;;;;;-139.48;100.00;61774.03;5034274;28;20044;-70
